KFYV/FYV METAR and TAF weather

Enter ICAO airport designator
Station Type Date Time Source
KFYV METAR 2019/10/23 01:53 UTC NOAA

KFYV 230153Z 15003KT 10SM CLR 08/04 A3010 RMK AO2 SLP193 T00780044


Station Type Date Time Source
KFYV Decoded METAR 2019/10/23 01:53 UTC NOAA

FAYETTEVILLE DRAKE FIELD, AR, United States (KFYV) 36-00N 94-10W 379M
Oct 22, 2019 - 09:53 PM EDT / 2019.10.23 0153 UTC
Wind: from the SSE (150 degrees) at 3 MPH (3 KT):0
Visibility: 10 mile(s):0
Sky conditions: clear
Temperature: 46.0 F (7.8 C)
Dew Point: 39.9 F (4.4 C)
Relative Humidity: 79%
Pressure (altimeter): 30.1 in. Hg (1019 hPa)
ob: KFYV 230153Z 15003KT 10SM CLR 08/04 A3010 RMK AO2 SLP193 T00780044
cycle: 2

Station Type Date Time Source
KFYV TAF 2019/10/22 18:22 UTC NOAA

TAF KFYV 221720Z 2218/2318 27012G18KT P6SM SKC
FM230000 20003KT P6SM SKC
FM231500 20015G23KT P6SM SCT250

Example: see airport list